sensor_id;sensor_type;location;lat;lon;timestamp;P1;durP1;ratioP1;P2;durP2;ratioP2
48018;SDS011;33786;48.690;9.562;2024-02-14T00:00:09;9.50;;;6.03;;
48018;SDS011;33786;48.690;9.562;2024-02-14T00:02:41;7.38;;;5.88;;
48018;SDS011;33786;48.690;9.562;2024-02-14T00:05:11;8.57;;;5.90;;
48018;SDS011;33786;48.690;9.562;2024-02-14T00:07:38;8.65;;;6.45;;
48018;SDS011;33786;48.690;9.562;2024-02-14T00:10:08;9.05;;;6.22;;
48018;SDS011;33786;48.690;9.562;2024-02-14T00:12:35;10.15;;;5.50;;
48018;SDS011;33786;48.690;9.562;2024-02-14T00:15:04;9.38;;;6.38;;
48018;SDS011;33786;48.690;9.562;2024-02-14T00:17:33;10.38;;;5.72;;
48018;SDS011;33786;48.690;9.562;2024-02-14T00:20:01;9.38;;;6.05;;
48018;SDS011;33786;48.690;9.562;2024-02-14T00:22:30;10.52;;;5.57;;
48018;SDS011;33786;48.690;9.562;2024-02-14T00:24:57;8.48;;;5.40;;
48018;SDS011;33786;48.690;9.562;2024-02-14T00:27:24;9.85;;;5.85;;
48018;SDS011;33786;48.690;9.562;2024-02-14T00:29:53;9.73;;;5.93;;
48018;SDS011;33786;48.690;9.562;2024-02-14T00:32:21;6.93;;;5.55;;
48018;SDS011;33786;48.690;9.562;2024-02-14T00:34:48;8.90;;;6.13;;
48018;SDS011;33786;48.690;9.562;2024-02-14T00:37:16;8.88;;;5.90;;
48018;SDS011;33786;48.690;9.562;2024-02-14T00:39:45;9.40;;;6.22;;
48018;SDS011;33786;48.690;9.562;2024-02-14T00:42:14;8.73;;;6.03;;
48018;SDS011;33786;48.690;9.562;2024-02-14T00:44:41;7.97;;;5.97;;
48018;SDS011;33786;48.690;9.562;2024-02-14T00:47:08;8.93;;;5.38;;
48018;SDS011;33786;48.690;9.562;2024-02-14T00:49:35;10.27;;;5.85;;
48018;SDS011;33786;48.690;9.562;2024-02-14T00:52:03;9.40;;;6.07;;
48018;SDS011;33786;48.690;9.562;2024-02-14T00:54:30;8.93;;;5.07;;
48018;SDS011;33786;48.690;9.562;2024-02-14T00:56:57;6.55;;;5.35;;
48018;SDS011;33786;48.690;9.562;2024-02-14T00:59:24;8.48;;;6.15;;
48018;SDS011;33786;48.690;9.562;2024-02-14T01:01:51;7.35;;;5.82;;
48018;SDS011;33786;48.690;9.562;2024-02-14T01:04:18;9.73;;;6.40;;
48018;SDS011;33786;48.690;9.562;2024-02-14T01:06:44;11.07;;;7.22;;
48018;SDS011;33786;48.690;9.562;2024-02-14T01:09:11;10.38;;;7.03;;
48018;SDS011;33786;48.690;9.562;2024-02-14T01:11:38;9.05;;;6.32;;
48018;SDS011;33786;48.690;9.562;2024-02-14T01:14:05;8.63;;;5.68;;
48018;SDS011;33786;48.690;9.562;2024-02-14T01:16:32;9.07;;;5.53;;
48018;SDS011;33786;48.690;9.562;2024-02-14T01:18:59;8.05;;;6.15;;
48018;SDS011;33786;48.690;9.562;2024-02-14T01:21:26;9.95;;;6.93;;
48018;SDS011;33786;48.690;9.562;2024-02-14T01:23:53;8.57;;;6.00;;
48018;SDS011;33786;48.690;9.562;2024-02-14T01:26:20;8.35;;;6.03;;
48018;SDS011;33786;48.690;9.562;2024-02-14T01:28:47;11.32;;;6.57;;
48018;SDS011;33786;48.690;9.562;2024-02-14T01:31:14;9.73;;;5.10;;
48018;SDS011;33786;48.690;9.562;2024-02-14T01:33:41;9.98;;;5.82;;
48018;SDS011;33786;48.690;9.562;2024-02-14T01:36:10;8.93;;;5.65;;
48018;SDS011;33786;48.690;9.562;2024-02-14T01:38:36;10.80;;;6.72;;
48018;SDS011;33786;48.690;9.562;2024-02-14T01:41:03;8.65;;;5.75;;
48018;SDS011;33786;48.690;9.562;2024-02-14T01:43:31;9.25;;;5.88;;
48018;SDS011;33786;48.690;9.562;2024-02-14T01:46:02;9.65;;;6.63;;
48018;SDS011;33786;48.690;9.562;2024-02-14T01:48:33;8.93;;;5.20;;
48018;SDS011;33786;48.690;9.562;2024-02-14T01:51:02;8.40;;;5.55;;
48018;SDS011;33786;48.690;9.562;2024-02-14T01:53:30;7.90;;;5.70;;
48018;SDS011;33786;48.690;9.562;2024-02-14T01:55:58;8.40;;;5.03;;
48018;SDS011;33786;48.690;9.562;2024-02-14T01:58:26;8.05;;;5.53;;
48018;SDS011;33786;48.690;9.562;2024-02-14T02:00:54;9.55;;;5.88;;
48018;SDS011;33786;48.690;9.562;2024-02-14T02:03:23;10.23;;;5.32;;
48018;SDS011;33786;48.690;9.562;2024-02-14T02:05:51;9.23;;;5.97;;
48018;SDS011;33786;48.690;9.562;2024-02-14T02:08:20;7.60;;;5.65;;
48018;SDS011;33786;48.690;9.562;2024-02-14T02:10:48;11.65;;;6.18;;
48018;SDS011;33786;48.690;9.562;2024-02-14T02:13:14;8.93;;;6.15;;
48018;SDS011;33786;48.690;9.562;2024-02-14T02:15:42;8.23;;;5.35;;
48018;SDS011;33786;48.690;9.562;2024-02-14T02:18:13;8.48;;;5.97;;
48018;SDS011;33786;48.690;9.562;2024-02-14T02:20:41;8.82;;;5.70;;
48018;SDS011;33786;48.690;9.562;2024-02-14T02:23:11;10.65;;;5.80;;
48018;SDS011;33786;48.690;9.562;2024-02-14T02:25:42;10.18;;;5.38;;
48018;SDS011;33786;48.690;9.562;2024-02-14T02:28:09;10.82;;;6.05;;
48018;SDS011;33786;48.690;9.562;2024-02-14T02:30:36;8.23;;;5.50;;
48018;SDS011;33786;48.690;9.562;2024-02-14T02:33:04;9.18;;;6.18;;
48018;SDS011;33786;48.690;9.562;2024-02-14T02:35:32;10.57;;;6.32;;
48018;SDS011;33786;48.690;9.562;2024-02-14T02:38:00;8.95;;;6.65;;
48018;SDS011;33786;48.690;9.562;2024-02-14T02:40:27;8.35;;;6.13;;
48018;SDS011;33786;48.690;9.562;2024-02-14T02:42:54;9.18;;;6.15;;
48018;SDS011;33786;48.690;9.562;2024-02-14T02:45:21;8.02;;;5.95;;
48018;SDS011;33786;48.690;9.562;2024-02-14T02:47:48;9.25;;;6.10;;
48018;SDS011;33786;48.690;9.562;2024-02-14T02:50:18;9.18;;;6.72;;
48018;SDS011;33786;48.690;9.562;2024-02-14T02:52:46;9.43;;;6.32;;
48018;SDS011;33786;48.690;9.562;2024-02-14T02:55:13;11.05;;;7.22;;
48018;SDS011;33786;48.690;9.562;2024-02-14T02:57:44;9.85;;;7.25;;
48018;SDS011;33786;48.690;9.562;2024-02-14T03:00:12;8.55;;;6.07;;
48018;SDS011;33786;48.690;9.562;2024-02-14T03:02:40;9.65;;;6.53;;
48018;SDS011;33786;48.690;9.562;2024-02-14T03:05:13;9.65;;;6.75;;
48018;SDS011;33786;48.690;9.562;2024-02-14T03:07:45;9.35;;;6.18;;
48018;SDS011;33786;48.690;9.562;2024-02-14T03:10:15;8.00;;;6.07;;
48018;SDS011;33786;48.690;9.562;2024-02-14T03:12:45;8.95;;;6.18;;
48018;SDS011;33786;48.690;9.562;2024-02-14T03:15:16;9.38;;;6.10;;
48018;SDS011;33786;48.690;9.562;2024-02-14T03:17:44;9.07;;;5.80;;
48018;SDS011;33786;48.690;9.562;2024-02-14T03:20:11;10.27;;;6.35;;
48018;SDS011;33786;48.690;9.562;2024-02-14T03:22:43;9.45;;;5.88;;
48018;SDS011;33786;48.690;9.562;2024-02-14T03:25:16;10.00;;;6.43;;
48018;SDS011;33786;48.690;9.562;2024-02-14T03:27:43;10.63;;;6.20;;
48018;SDS011;33786;48.690;9.562;2024-02-14T03:30:17;10.20;;;6.15;;
48018;SDS011;33786;48.690;9.562;2024-02-14T03:32:49;11.25;;;7.38;;
48018;SDS011;33786;48.690;9.562;2024-02-14T03:35:16;11.40;;;6.93;;
48018;SDS011;33786;48.690;9.562;2024-02-14T03:37:45;9.65;;;6.88;;
48018;SDS011;33786;48.690;9.562;2024-02-14T03:40:14;12.68;;;6.93;;
48018;SDS011;33786;48.690;9.562;2024-02-14T03:42:41;9.88;;;6.13;;
48018;SDS011;33786;48.690;9.562;2024-02-14T03:45:08;11.68;;;7.30;;
48018;SDS011;33786;48.690;9.562;2024-02-14T03:47:36;9.45;;;6.78;;
48018;SDS011;33786;48.690;9.562;2024-02-14T03:50:06;10.38;;;7.25;;
48018;SDS011;33786;48.690;9.562;2024-02-14T03:52:37;11.85;;;6.85;;
48018;SDS011;33786;48.690;9.562;2024-02-14T03:55:04;9.48;;;6.55;;
48018;SDS011;33786;48.690;9.562;2024-02-14T03:57:31;9.45;;;6.78;;
48018;SDS011;33786;48.690;9.562;2024-02-14T04:00:01;9.43;;;6.53;;
48018;SDS011;33786;48.690;9.562;2024-02-14T04:02:29;8.30;;;6.35;;
48018;SDS011;33786;48.690;9.562;2024-02-14T04:04:58;10.75;;;6.32;;
48018;SDS011;33786;48.690;9.562;2024-02-14T04:07:25;10.48;;;6.13;;
48018;SDS011;33786;48.690;9.562;2024-02-14T04:09:52;10.95;;;5.90;;
48018;SDS011;33786;48.690;9.562;2024-02-14T04:12:19;7.95;;;6.63;;
48018;SDS011;33786;48.690;9.562;2024-02-14T04:14:46;11.18;;;7.40;;
48018;SDS011;33786;48.690;9.562;2024-02-14T04:17:13;12.02;;;6.32;;
48018;SDS011;33786;48.690;9.562;2024-02-14T04:19:40;8.93;;;5.72;;
48018;SDS011;33786;48.690;9.562;2024-02-14T04:22:07;8.70;;;6.07;;
48018;SDS011;33786;48.690;9.562;2024-02-14T04:24:34;8.63;;;6.18;;
48018;SDS011;33786;48.690;9.562;2024-02-14T04:27:01;8.50;;;6.03;;
48018;SDS011;33786;48.690;9.562;2024-02-14T04:29:30;10.10;;;6.07;;
48018;SDS011;33786;48.690;9.562;2024-02-14T04:32:00;9.38;;;6.50;;
48018;SDS011;33786;48.690;9.562;2024-02-14T04:34:27;12.93;;;6.50;;
48018;SDS011;33786;48.690;9.562;2024-02-14T04:36:55;10.10;;;6.32;;
48018;SDS011;33786;48.690;9.562;2024-02-14T04:39:22;10.70;;;5.40;;
48018;SDS011;33786;48.690;9.562;2024-02-14T04:41:49;9.88;;;6.53;;
48018;SDS011;33786;48.690;9.562;2024-02-14T04:44:27;9.13;;;6.28;;
48018;SDS011;33786;48.690;9.562;2024-02-14T04:46:58;9.18;;;6.43;;
48018;SDS011;33786;48.690;9.562;2024-02-14T04:49:26;8.18;;;5.97;;
48018;SDS011;33786;48.690;9.562;2024-02-14T04:51:55;10.75;;;6.50;;
48018;SDS011;33786;48.690;9.562;2024-02-14T04:54:22;8.48;;;6.38;;
48018;SDS011;33786;48.690;9.562;2024-02-14T04:56:48;9.80;;;6.57;;
48018;SDS011;33786;48.690;9.562;2024-02-14T04:59:21;8.60;;;5.68;;
48018;SDS011;33786;48.690;9.562;2024-02-14T05:01:48;9.18;;;6.90;;
48018;SDS011;33786;48.690;9.562;2024-02-14T05:04:16;8.60;;;6.35;;
48018;SDS011;33786;48.690;9.562;2024-02-14T05:06:43;9.15;;;5.97;;
48018;SDS011;33786;48.690;9.562;2024-02-14T05:09:10;10.50;;;6.25;;
48018;SDS011;33786;48.690;9.562;2024-02-14T05:11:37;13.05;;;7.90;;
48018;SDS011;33786;48.690;9.562;2024-02-14T05:14:04;9.00;;;6.97;;
48018;SDS011;33786;48.690;9.562;2024-02-14T05:16:31;9.43;;;6.18;;
48018;SDS011;33786;48.690;9.562;2024-02-14T05:18:58;10.35;;;6.55;;
48018;SDS011;33786;48.690;9.562;2024-02-14T05:21:25;8.63;;;5.75;;
48018;SDS011;33786;48.690;9.562;2024-02-14T05:23:53;9.10;;;5.47;;
48018;SDS011;33786;48.690;9.562;2024-02-14T05:26:20;9.90;;;6.63;;
48018;SDS011;33786;48.690;9.562;2024-02-14T05:28:47;10.70;;;6.63;;
48018;SDS011;33786;48.690;9.562;2024-02-14T05:31:13;8.27;;;5.80;;
48018;SDS011;33786;48.690;9.562;2024-02-14T05:33:41;9.35;;;6.30;;
48018;SDS011;33786;48.690;9.562;2024-02-14T05:36:09;9.48;;;5.80;;
48018;SDS011;33786;48.690;9.562;2024-02-14T05:38:36;9.55;;;6.45;;
48018;SDS011;33786;48.690;9.562;2024-02-14T05:41:03;11.10;;;6.13;;
48018;SDS011;33786;48.690;9.562;2024-02-14T05:43:30;10.20;;;6.10;;
48018;SDS011;33786;48.690;9.562;2024-02-14T05:45:57;11.35;;;5.95;;
48018;SDS011;33786;48.690;9.562;2024-02-14T05:48:24;14.68;;;6.63;;
48018;SDS011;33786;48.690;9.562;2024-02-14T05:50:52;9.30;;;5.95;;
48018;SDS011;33786;48.690;9.562;2024-02-14T05:53:18;8.85;;;6.03;;
48018;SDS011;33786;48.690;9.562;2024-02-14T05:55:46;9.95;;;6.32;;
48018;SDS011;33786;48.690;9.562;2024-02-14T05:58:13;10.35;;;6.50;;
48018;SDS011;33786;48.690;9.562;2024-02-14T06:00:41;9.40;;;5.65;;
48018;SDS011;33786;48.690;9.562;2024-02-14T06:03:08;10.60;;;6.55;;
48018;SDS011;33786;48.690;9.562;2024-02-14T06:05:35;8.93;;;5.97;;
48018;SDS011;33786;48.690;9.562;2024-02-14T06:08:02;10.98;;;6.82;;
48018;SDS011;33786;48.690;9.562;2024-02-14T06:10:29;10.80;;;6.78;;
48018;SDS011;33786;48.690;9.562;2024-02-14T06:12:56;7.93;;;5.65;;
48018;SDS011;33786;48.690;9.562;2024-02-14T06:15:23;8.05;;;6.95;;
48018;SDS011;33786;48.690;9.562;2024-02-14T06:17:50;8.65;;;6.65;;
48018;SDS011;33786;48.690;9.562;2024-02-14T06:20:17;11.38;;;7.13;;
48018;SDS011;33786;48.690;9.562;2024-02-14T06:22:45;10.05;;;6.38;;
48018;SDS011;33786;48.690;9.562;2024-02-14T06:25:22;11.38;;;6.70;;
48018;SDS011;33786;48.690;9.562;2024-02-14T06:27:49;11.85;;;6.90;;
48018;SDS011;33786;48.690;9.562;2024-02-14T06:30:16;8.05;;;6.13;;
48018;SDS011;33786;48.690;9.562;2024-02-14T06:32:45;10.10;;;6.70;;
48018;SDS011;33786;48.690;9.562;2024-02-14T06:35:12;10.23;;;6.75;;
48018;SDS011;33786;48.690;9.562;2024-02-14T06:37:41;9.43;;;6.03;;
48018;SDS011;33786;48.690;9.562;2024-02-14T06:40:21;8.40;;;6.15;;
48018;SDS011;33786;48.690;9.562;2024-02-14T06:42:48;11.80;;;7.32;;
48018;SDS011;33786;48.690;9.562;2024-02-14T06:45:17;10.85;;;7.57;;
48018;SDS011;33786;48.690;9.562;2024-02-14T06:47:44;12.73;;;7.78;;
48018;SDS011;33786;48.690;9.562;2024-02-14T06:50:11;10.35;;;7.68;;
48018;SDS011;33786;48.690;9.562;2024-02-14T06:52:38;10.13;;;7.05;;
48018;SDS011;33786;48.690;9.562;2024-02-14T06:55:05;9.93;;;6.60;;
48018;SDS011;33786;48.690;9.562;2024-02-14T06:57:32;11.77;;;7.85;;
48018;SDS011;33786;48.690;9.562;2024-02-14T06:59:59;12.65;;;7.68;;
48018;SDS011;33786;48.690;9.562;2024-02-14T07:02:26;10.10;;;7.20;;
48018;SDS011;33786;48.690;9.562;2024-02-14T07:04:54;9.77;;;7.10;;
48018;SDS011;33786;48.690;9.562;2024-02-14T07:07:21;15.35;;;10.93;;
48018;SDS011;33786;48.690;9.562;2024-02-14T07:09:48;20.10;;;13.52;;
48018;SDS011;33786;48.690;9.562;2024-02-14T07:12:15;13.82;;;10.18;;
48018;SDS011;33786;48.690;9.562;2024-02-14T07:14:42;15.60;;;9.35;;
48018;SDS011;33786;48.690;9.562;2024-02-14T07:17:09;21.02;;;12.90;;
48018;SDS011;33786;48.690;9.562;2024-02-14T07:19:35;35.28;;;20.10;;
48018;SDS011;33786;48.690;9.562;2024-02-14T07:22:05;29.42;;;17.98;;
48018;SDS011;33786;48.690;9.562;2024-02-14T07:24:31;21.02;;;11.25;;
48018;SDS011;33786;48.690;9.562;2024-02-14T07:26:58;14.18;;;8.93;;
48018;SDS011;33786;48.690;9.562;2024-02-14T07:29:25;11.60;;;7.28;;
48018;SDS011;33786;48.690;9.562;2024-02-14T07:31:52;15.30;;;9.20;;
48018;SDS011;33786;48.690;9.562;2024-02-14T07:34:19;18.83;;;13.57;;
48018;SDS011;33786;48.690;9.562;2024-02-14T07:36:46;23.42;;;15.57;;
48018;SDS011;33786;48.690;9.562;2024-02-14T07:39:13;19.05;;;12.88;;
48018;SDS011;33786;48.690;9.562;2024-02-14T07:41:40;25.17;;;12.85;;
48018;SDS011;33786;48.690;9.562;2024-02-14T07:44:06;24.80;;;12.43;;
48018;SDS011;33786;48.690;9.562;2024-02-14T07:46:34;21.58;;;11.15;;
48018;SDS011;33786;48.690;9.562;2024-02-14T07:49:00;18.02;;;10.10;;
48018;SDS011;33786;48.690;9.562;2024-02-14T07:51:27;17.58;;;9.57;;
48018;SDS011;33786;48.690;9.562;2024-02-14T07:53:55;15.70;;;8.90;;
48018;SDS011;33786;48.690;9.562;2024-02-14T07:56:22;19.98;;;10.77;;
48018;SDS011;33786;48.690;9.562;2024-02-14T07:58:49;18.55;;;9.68;;
48018;SDS011;33786;48.690;9.562;2024-02-14T08:01:16;16.83;;;10.20;;
48018;SDS011;33786;48.690;9.562;2024-02-14T08:03:43;12.35;;;8.45;;
48018;SDS011;33786;48.690;9.562;2024-02-14T08:06:12;14.07;;;8.23;;
48018;SDS011;33786;48.690;9.562;2024-02-14T08:08:40;13.40;;;8.15;;
48018;SDS011;33786;48.690;9.562;2024-02-14T08:11:07;17.85;;;8.63;;
48018;SDS011;33786;48.690;9.562;2024-02-14T08:13:34;12.02;;;7.75;;
48018;SDS011;33786;48.690;9.562;2024-02-14T08:16:01;11.00;;;7.82;;
48018;SDS011;33786;48.690;9.562;2024-02-14T08:18:27;9.80;;;7.38;;
48018;SDS011;33786;48.690;9.562;2024-02-14T08:20:55;14.85;;;8.20;;
48018;SDS011;33786;48.690;9.562;2024-02-14T08:23:21;11.98;;;7.63;;
48018;SDS011;33786;48.690;9.562;2024-02-14T08:25:48;9.90;;;6.57;;
48018;SDS011;33786;48.690;9.562;2024-02-14T08:28:15;11.50;;;7.45;;
48018;SDS011;33786;48.690;9.562;2024-02-14T08:30:44;9.38;;;7.22;;
48018;SDS011;33786;48.690;9.562;2024-02-14T08:33:11;11.55;;;7.57;;
48018;SDS011;33786;48.690;9.562;2024-02-14T08:35:38;13.63;;;6.53;;
48018;SDS011;33786;48.690;9.562;2024-02-14T08:38:09;10.02;;;7.30;;
48018;SDS011;33786;48.690;9.562;2024-02-14T08:40:36;9.45;;;7.22;;
48018;SDS011;33786;48.690;9.562;2024-02-14T08:43:03;10.02;;;6.55;;
48018;SDS011;33786;48.690;9.562;2024-02-14T08:45:31;13.05;;;6.95;;
48018;SDS011;33786;48.690;9.562;2024-02-14T08:47:58;11.75;;;7.35;;
48018;SDS011;33786;48.690;9.562;2024-02-14T08:50:25;14.05;;;10.10;;
48018;SDS011;33786;48.690;9.562;2024-02-14T08:52:52;13.05;;;8.85;;
48018;SDS011;33786;48.690;9.562;2024-02-14T08:55:19;14.25;;;9.13;;
48018;SDS011;33786;48.690;9.562;2024-02-14T08:57:46;9.68;;;6.95;;
48018;SDS011;33786;48.690;9.562;2024-02-14T09:00:14;8.05;;;5.60;;
48018;SDS011;33786;48.690;9.562;2024-02-14T09:02:46;8.57;;;6.22;;
48018;SDS011;33786;48.690;9.562;2024-02-14T09:05:13;9.23;;;5.50;;
48018;SDS011;33786;48.690;9.562;2024-02-14T09:07:43;12.40;;;6.60;;
48018;SDS011;33786;48.690;9.562;2024-02-14T09:10:10;10.82;;;5.55;;
48018;SDS011;33786;48.690;9.562;2024-02-14T09:12:39;11.38;;;6.40;;
48018;SDS011;33786;48.690;9.562;2024-02-14T09:15:08;8.52;;;5.93;;
48018;SDS011;33786;48.690;9.562;2024-02-14T09:17:35;8.68;;;5.80;;
48018;SDS011;33786;48.690;9.562;2024-02-14T09:20:02;11.25;;;6.80;;
48018;SDS011;33786;48.690;9.562;2024-02-14T09:22:29;12.18;;;6.45;;
48018;SDS011;33786;48.690;9.562;2024-02-14T09:24:56;8.48;;;5.38;;
48018;SDS011;33786;48.690;9.562;2024-02-14T09:27:24;8.50;;;5.07;;
48018;SDS011;33786;48.690;9.562;2024-02-14T09:29:50;7.95;;;4.93;;
48018;SDS011;33786;48.690;9.562;2024-02-14T09:32:17;9.63;;;5.72;;
48018;SDS011;33786;48.690;9.562;2024-02-14T09:34:44;8.18;;;4.65;;
48018;SDS011;33786;48.690;9.562;2024-02-14T09:37:12;8.40;;;5.05;;
48018;SDS011;33786;48.690;9.562;2024-02-14T09:39:39;7.55;;;4.55;;
48018;SDS011;33786;48.690;9.562;2024-02-14T09:42:11;6.38;;;4.82;;
48018;SDS011;33786;48.690;9.562;2024-02-14T09:44:40;8.63;;;4.70;;
48018;SDS011;33786;48.690;9.562;2024-02-14T09:47:07;8.38;;;4.88;;
48018;SDS011;33786;48.690;9.562;2024-02-14T09:49:35;7.43;;;4.80;;
48018;SDS011;33786;48.690;9.562;2024-02-14T09:52:03;8.85;;;5.35;;
48018;SDS011;33786;48.690;9.562;2024-02-14T09:54:31;7.75;;;5.65;;
48018;SDS011;33786;48.690;9.562;2024-02-14T09:57:01;8.73;;;5.50;;
48018;SDS011;33786;48.690;9.562;2024-02-14T09:59:29;10.93;;;5.63;;
48018;SDS011;33786;48.690;9.562;2024-02-14T10:01:56;10.52;;;6.05;;
48018;SDS011;33786;48.690;9.562;2024-02-14T10:04:23;8.45;;;5.53;;
48018;SDS011;33786;48.690;9.562;2024-02-14T10:06:52;11.40;;;6.75;;
48018;SDS011;33786;48.690;9.562;2024-02-14T10:09:20;10.20;;;5.85;;
48018;SDS011;33786;48.690;9.562;2024-02-14T10:11:48;9.48;;;6.05;;
48018;SDS011;33786;48.690;9.562;2024-02-14T10:14:16;7.25;;;5.35;;
48018;SDS011;33786;48.690;9.562;2024-02-14T10:16:42;10.52;;;5.78;;
48018;SDS011;33786;48.690;9.562;2024-02-14T10:19:17;8.35;;;5.03;;
48018;SDS011;33786;48.690;9.562;2024-02-14T10:22:00;8.13;;;4.68;;
48018;SDS011;33786;48.690;9.562;2024-02-14T10:27:01;6.82;;;3.60;;
48018;SDS011;33786;48.690;9.562;2024-02-14T10:29:28;6.25;;;3.75;;
48018;SDS011;33786;48.690;9.562;2024-02-14T10:31:55;5.57;;;4.18;;
48018;SDS011;33786;48.690;9.562;2024-02-14T10:34:24;5.38;;;3.85;;
48018;SDS011;33786;48.690;9.562;2024-02-14T10:36:53;5.68;;;3.40;;
48018;SDS011;33786;48.690;9.562;2024-02-14T10:39:24;4.78;;;2.72;;
48018;SDS011;33786;48.690;9.562;2024-02-14T10:41:52;4.20;;;2.58;;
48018;SDS011;33786;48.690;9.562;2024-02-14T10:44:19;3.65;;;2.28;;
48018;SDS011;33786;48.690;9.562;2024-02-14T10:46:46;5.25;;;2.50;;
48018;SDS011;33786;48.690;9.562;2024-02-14T10:49:17;4.10;;;2.17;;
48018;SDS011;33786;48.690;9.562;2024-02-14T10:51:47;8.68;;;2.55;;
48018;SDS011;33786;48.690;9.562;2024-02-14T10:54:16;5.75;;;2.03;;
48018;SDS011;33786;48.690;9.562;2024-02-14T10:56:47;3.03;;;1.90;;
48018;SDS011;33786;48.690;9.562;2024-02-14T10:59:19;5.53;;;2.20;;
48018;SDS011;33786;48.690;9.562;2024-02-14T11:01:49;3.35;;;1.80;;
48018;SDS011;33786;48.690;9.562;2024-02-14T11:04:17;4.30;;;1.90;;
48018;SDS011;33786;48.690;9.562;2024-02-14T11:06:46;4.82;;;1.80;;
48018;SDS011;33786;48.690;9.562;2024-02-14T11:09:14;3.30;;;1.95;;
48018;SDS011;33786;48.690;9.562;2024-02-14T11:11:42;4.18;;;2.00;;
48018;SDS011;33786;48.690;9.562;2024-02-14T11:14:18;4.88;;;1.90;;
48018;SDS011;33786;48.690;9.562;2024-02-14T11:16:45;2.75;;;1.83;;
48018;SDS011;33786;48.690;9.562;2024-02-14T11:19:13;3.47;;;2.22;;
48018;SDS011;33786;48.690;9.562;2024-02-14T11:21:41;2.70;;;1.40;;
48018;SDS011;33786;48.690;9.562;2024-02-14T11:24:10;8.07;;;4.60;;
48018;SDS011;33786;48.690;9.562;2024-02-14T11:26:48;5.38;;;2.92;;
48018;SDS011;33786;48.690;9.562;2024-02-14T11:29:18;5.65;;;3.65;;
48018;SDS011;33786;48.690;9.562;2024-02-14T11:31:57;3.55;;;2.22;;
48018;SDS011;33786;48.690;9.562;2024-02-14T11:34:28;4.07;;;2.53;;
48018;SDS011;33786;48.690;9.562;2024-02-14T11:37:03;3.77;;;1.90;;
48018;SDS011;33786;48.690;9.562;2024-02-14T11:39:32;4.45;;;1.98;;
48018;SDS011;33786;48.690;9.562;2024-02-14T11:42:00;3.33;;;1.80;;
48018;SDS011;33786;48.690;9.562;2024-02-14T11:44:27;2.05;;;1.30;;
48018;SDS011;33786;48.690;9.562;2024-02-14T11:46:54;2.00;;;1.20;;
48018;SDS011;33786;48.690;9.562;2024-02-14T11:49:21;3.00;;;1.30;;
48018;SDS011;33786;48.690;9.562;2024-02-14T11:51:48;3.22;;;1.75;;
48018;SDS011;33786;48.690;9.562;2024-02-14T11:54:15;3.03;;;1.45;;
48018;SDS011;33786;48.690;9.562;2024-02-14T11:56:43;1.80;;;1.20;;
48018;SDS011;33786;48.690;9.562;2024-02-14T11:59:10;1.85;;;1.50;;
48018;SDS011;33786;48.690;9.562;2024-02-14T12:01:37;2.83;;;1.20;;
48018;SDS011;33786;48.690;9.562;2024-02-14T12:04:13;2.65;;;1.27;;
48018;SDS011;33786;48.690;9.562;2024-02-14T12:06:40;2.40;;;1.35;;
48018;SDS011;33786;48.690;9.562;2024-02-14T12:09:08;2.72;;;1.38;;
48018;SDS011;33786;48.690;9.562;2024-02-14T12:11:36;3.22;;;1.20;;
48018;SDS011;33786;48.690;9.562;2024-02-14T12:14:06;2.40;;;0.88;;
48018;SDS011;33786;48.690;9.562;2024-02-14T12:16:35;2.05;;;1.08;;
48018;SDS011;33786;48.690;9.562;2024-02-14T12:19:07;3.00;;;1.00;;
48018;SDS011;33786;48.690;9.562;2024-02-14T12:21:38;1.05;;;0.95;;
48018;SDS011;33786;48.690;9.562;2024-02-14T12:24:09;2.85;;;1.10;;
48018;SDS011;33786;48.690;9.562;2024-02-14T12:26:37;1.90;;;0.90;;
48018;SDS011;33786;48.690;9.562;2024-02-14T12:29:05;0.98;;;0.80;;
48018;SDS011;33786;48.690;9.562;2024-02-14T12:31:33;3.17;;;1.30;;
48018;SDS011;33786;48.690;9.562;2024-02-14T12:34:01;2.22;;;1.05;;
48018;SDS011;33786;48.690;9.562;2024-02-14T12:36:31;1.73;;;0.80;;
48018;SDS011;33786;48.690;9.562;2024-02-14T12:39:00;2.08;;;1.00;;
48018;SDS011;33786;48.690;9.562;2024-02-14T12:41:29;1.63;;;0.90;;
48018;SDS011;33786;48.690;9.562;2024-02-14T12:44:00;1.00;;;0.70;;
48018;SDS011;33786;48.690;9.562;2024-02-14T12:46:27;1.40;;;0.82;;
48018;SDS011;33786;48.690;9.562;2024-02-14T12:48:54;2.17;;;1.05;;
48018;SDS011;33786;48.690;9.562;2024-02-14T12:51:21;1.40;;;0.73;;
48018;SDS011;33786;48.690;9.562;2024-02-14T12:53:48;1.92;;;0.90;;
48018;SDS011;33786;48.690;9.562;2024-02-14T12:56:15;2.58;;;0.90;;
48018;SDS011;33786;48.690;9.562;2024-02-14T12:58:42;1.30;;;0.80;;
48018;SDS011;33786;48.690;9.562;2024-02-14T13:01:08;1.55;;;1.20;;
48018;SDS011;33786;48.690;9.562;2024-02-14T13:03:37;2.35;;;1.23;;
48018;SDS011;33786;48.690;9.562;2024-02-14T13:06:06;2.17;;;1.40;;
48018;SDS011;33786;48.690;9.562;2024-02-14T13:08:33;2.33;;;0.88;;
48018;SDS011;33786;48.690;9.562;2024-02-14T13:11:00;1.35;;;0.80;;
48018;SDS011;33786;48.690;9.562;2024-02-14T13:13:26;2.33;;;0.73;;
48018;SDS011;33786;48.690;9.562;2024-02-14T13:15:57;1.80;;;0.60;;
48018;SDS011;33786;48.690;9.562;2024-02-14T13:18:24;1.40;;;1.02;;
48018;SDS011;33786;48.690;9.562;2024-02-14T13:20:51;1.63;;;0.70;;
48018;SDS011;33786;48.690;9.562;2024-02-14T13:23:25;1.70;;;0.60;;
48018;SDS011;33786;48.690;9.562;2024-02-14T13:25:52;0.73;;;0.50;;
48018;SDS011;33786;48.690;9.562;2024-02-14T13:28:19;1.95;;;0.85;;
48018;SDS011;33786;48.690;9.562;2024-02-14T13:30:46;1.90;;;0.80;;
48018;SDS011;33786;48.690;9.562;2024-02-14T13:33:13;1.27;;;0.70;;
48018;SDS011;33786;48.690;9.562;2024-02-14T13:35:40;1.65;;;0.70;;
48018;SDS011;33786;48.690;9.562;2024-02-14T13:38:07;5.35;;;2.67;;
48018;SDS011;33786;48.690;9.562;2024-02-14T13:40:37;2.83;;;1.27;;
48018;SDS011;33786;48.690;9.562;2024-02-14T13:43:04;1.83;;;0.90;;
48018;SDS011;33786;48.690;9.562;2024-02-14T13:45:41;2.85;;;1.15;;
48018;SDS011;33786;48.690;9.562;2024-02-14T13:48:09;1.95;;;0.68;;
48018;SDS011;33786;48.690;9.562;2024-02-14T13:50:37;2.25;;;1.25;;
48018;SDS011;33786;48.690;9.562;2024-02-14T13:53:06;2.17;;;1.10;;
48018;SDS011;33786;48.690;9.562;2024-02-14T13:55:33;3.13;;;1.02;;
48018;SDS011;33786;48.690;9.562;2024-02-14T13:58:00;1.25;;;0.88;;
48018;SDS011;33786;48.690;9.562;2024-02-14T14:00:27;2.85;;;1.00;;
48018;SDS011;33786;48.690;9.562;2024-02-14T14:02:54;2.08;;;0.90;;
48018;SDS011;33786;48.690;9.562;2024-02-14T14:05:21;1.85;;;1.30;;
48018;SDS011;33786;48.690;9.562;2024-02-14T14:07:48;3.80;;;1.73;;
48018;SDS011;33786;48.690;9.562;2024-02-14T14:12:53;1.65;;;0.47;;
48018;SDS011;33786;48.690;9.562;2024-02-14T14:15:20;1.15;;;0.85;;
48018;SDS011;33786;48.690;9.562;2024-02-14T14:17:49;0.80;;;0.60;;
48018;SDS011;33786;48.690;9.562;2024-02-14T14:20:17;0.88;;;0.75;;
48018;SDS011;33786;48.690;9.562;2024-02-14T14:22:46;0.47;;;0.40;;
48018;SDS011;33786;48.690;9.562;2024-02-14T14:25:12;0.40;;;0.40;;
48018;SDS011;33786;48.690;9.562;2024-02-14T14:27:40;0.52;;;0.40;;
48018;SDS011;33786;48.690;9.562;2024-02-14T14:30:07;0.73;;;0.50;;
48018;SDS011;33786;48.690;9.562;2024-02-14T14:32:34;1.27;;;0.70;;
48018;SDS011;33786;48.690;9.562;2024-02-14T14:35:01;1.27;;;0.95;;
48018;SDS011;33786;48.690;9.562;2024-02-14T14:37:28;1.67;;;0.63;;
48018;SDS011;33786;48.690;9.562;2024-02-14T14:39:55;0.40;;;0.40;;
48018;SDS011;33786;48.690;9.562;2024-02-14T14:42:22;2.40;;;1.05;;
48018;SDS011;33786;48.690;9.562;2024-02-14T14:44:49;1.13;;;0.60;;
48018;SDS011;33786;48.690;9.562;2024-02-14T14:47:16;1.27;;;1.10;;
48018;SDS011;33786;48.690;9.562;2024-02-14T14:49:43;2.97;;;1.20;;
48018;SDS011;33786;48.690;9.562;2024-02-14T14:52:11;6.50;;;3.00;;